sensor_id;sensor_type;location;lat;lon;timestamp;temperature;humidity
7666;DHT22;3875;46.562;4.898;2023-03-26T00:00:46;11.30;85.30
7666;DHT22;3875;46.562;4.898;2023-03-26T00:03:16;11.30;85.10
7666;DHT22;3875;46.562;4.898;2023-03-26T00:05:42;11.30;84.90
7666;DHT22;3875;46.562;4.898;2023-03-26T00:08:08;11.30;85.00
7666;DHT22;3875;46.562;4.898;2023-03-26T00:10:39;11.30;85.00
7666;DHT22;3875;46.562;4.898;2023-03-26T00:13:05;11.30;85.10
7666;DHT22;3875;46.562;4.898;2023-03-26T00:15:33;11.30;85.10
7666;DHT22;3875;46.562;4.898;2023-03-26T00:17:59;11.30;85.20
7666;DHT22;3875;46.562;4.898;2023-03-26T00:20:29;11.30;85.10
7666;DHT22;3875;46.562;4.898;2023-03-26T00:22:57;11.30;85.10
7666;DHT22;3875;46.562;4.898;2023-03-26T00:25:25;11.30;85.10
7666;DHT22;3875;46.562;4.898;2023-03-26T00:27:51;11.30;85.10
7666;DHT22;3875;46.562;4.898;2023-03-26T00:30:17;11.30;84.80
7666;DHT22;3875;46.562;4.898;2023-03-26T00:32:43;11.30;84.80
7666;DHT22;3875;46.562;4.898;2023-03-26T00:35:09;11.30;84.70
7666;DHT22;3875;46.562;4.898;2023-03-26T00:37:35;11.30;84.80
7666;DHT22;3875;46.562;4.898;2023-03-26T00:40:01;11.30;84.70
7666;DHT22;3875;46.562;4.898;2023-03-26T00:42:32;11.30;84.80
7666;DHT22;3875;46.562;4.898;2023-03-26T00:44:57;11.30;84.60
7666;DHT22;3875;46.562;4.898;2023-03-26T00:47:24;11.40;84.70
7666;DHT22;3875;46.562;4.898;2023-03-26T00:49:50;11.40;84.60
7666;DHT22;3875;46.562;4.898;2023-03-26T00:52:16;11.40;84.40
7666;DHT22;3875;46.562;4.898;2023-03-26T00:54:50;11.40;84.60
7666;DHT22;3875;46.562;4.898;2023-03-26T00:57:17;11.40;84.40
7666;DHT22;3875;46.562;4.898;2023-03-26T00:59:46;11.40;84.30
7666;DHT22;3875;46.562;4.898;2023-03-26T01:02:15;11.40;84.40
7666;DHT22;3875;46.562;4.898;2023-03-26T01:04:44;11.40;84.40
7666;DHT22;3875;46.562;4.898;2023-03-26T01:07:13;11.40;84.40
7666;DHT22;3875;46.562;4.898;2023-03-26T01:09:43;11.40;84.30
7666;DHT22;3875;46.562;4.898;2023-03-26T01:12:18;11.40;84.50
7666;DHT22;3875;46.562;4.898;2023-03-26T01:14:49;11.40;84.50
7666;DHT22;3875;46.562;4.898;2023-03-26T01:17:17;11.40;84.50
7666;DHT22;3875;46.562;4.898;2023-03-26T01:22:26;11.30;84.60
7666;DHT22;3875;46.562;4.898;2023-03-26T01:24:52;11.30;84.50
7666;DHT22;3875;46.562;4.898;2023-03-26T01:33:04;11.10;85.40
7666;DHT22;3875;46.562;4.898;2023-03-26T01:36:18;11.10;85.70
7666;DHT22;3875;46.562;4.898;2023-03-26T01:38:52;11.10;85.90
7666;DHT22;3875;46.562;4.898;2023-03-26T01:41:31;11.10;86.10
7666;DHT22;3875;46.562;4.898;2023-03-26T01:44:37;11.10;86.10
7666;DHT22;3875;46.562;4.898;2023-03-26T01:47:00;11.10;86.10
7666;DHT22;3875;46.562;4.898;2023-03-26T01:49:27;11.00;86.40
7666;DHT22;3875;46.562;4.898;2023-03-26T01:51:55;11.00;86.50
7666;DHT22;3875;46.562;4.898;2023-03-26T01:54:25;11.00;86.60
7666;DHT22;3875;46.562;4.898;2023-03-26T01:57:00;11.00;86.60
7666;DHT22;3875;46.562;4.898;2023-03-26T02:02:29;11.00;86.70
7666;DHT22;3875;46.562;4.898;2023-03-26T02:07:53;11.00;86.60
7666;DHT22;3875;46.562;4.898;2023-03-26T02:10:27;11.00;86.70
7666;DHT22;3875;46.562;4.898;2023-03-26T02:12:54;11.00;86.70
7666;DHT22;3875;46.562;4.898;2023-03-26T02:15:20;11.00;86.70
7666;DHT22;3875;46.562;4.898;2023-03-26T02:17:46;10.90;86.70
7666;DHT22;3875;46.562;4.898;2023-03-26T02:20:14;10.90;86.80
7666;DHT22;3875;46.562;4.898;2023-03-26T02:22:41;10.90;86.90
7666;DHT22;3875;46.562;4.898;2023-03-26T02:25:15;10.90;86.90
7666;DHT22;3875;46.562;4.898;2023-03-26T02:27:41;10.90;87.10
7666;DHT22;3875;46.562;4.898;2023-03-26T02:30:10;10.90;87.10
7666;DHT22;3875;46.562;4.898;2023-03-26T02:32:37;10.90;87.10
7666;DHT22;3875;46.562;4.898;2023-03-26T02:35:04;10.90;87.10
7666;DHT22;3875;46.562;4.898;2023-03-26T02:37:31;10.90;87.10
7666;DHT22;3875;46.562;4.898;2023-03-26T02:39:59;10.90;87.20
7666;DHT22;3875;46.562;4.898;2023-03-26T02:42:25;10.90;87.40
7666;DHT22;3875;46.562;4.898;2023-03-26T02:44:51;10.80;87.80
7666;DHT22;3875;46.562;4.898;2023-03-26T02:47:16;10.80;87.90
7666;DHT22;3875;46.562;4.898;2023-03-26T02:49:42;10.80;87.90
7666;DHT22;3875;46.562;4.898;2023-03-26T02:52:08;10.80;88.00
7666;DHT22;3875;46.562;4.898;2023-03-26T02:54:34;10.80;88.10
7666;DHT22;3875;46.562;4.898;2023-03-26T02:57:00;10.80;88.40
7666;DHT22;3875;46.562;4.898;2023-03-26T02:59:26;10.80;88.80
7666;DHT22;3875;46.562;4.898;2023-03-26T03:01:52;10.80;88.60
7666;DHT22;3875;46.562;4.898;2023-03-26T03:04:18;10.80;88.80
7666;DHT22;3875;46.562;4.898;2023-03-26T03:06:44;10.80;88.90
7666;DHT22;3875;46.562;4.898;2023-03-26T03:09:10;10.80;88.80
7666;DHT22;3875;46.562;4.898;2023-03-26T03:11:39;10.80;88.90
7666;DHT22;3875;46.562;4.898;2023-03-26T03:14:06;10.80;88.80
7666;DHT22;3875;46.562;4.898;2023-03-26T03:16:31;10.80;88.90
7666;DHT22;3875;46.562;4.898;2023-03-26T03:18:57;10.80;88.90
7666;DHT22;3875;46.562;4.898;2023-03-26T03:21:25;10.80;88.80
7666;DHT22;3875;46.562;4.898;2023-03-26T03:23:52;10.80;88.70
7666;DHT22;3875;46.562;4.898;2023-03-26T03:26:20;10.90;88.80
7666;DHT22;3875;46.562;4.898;2023-03-26T03:28:47;10.80;89.00
7666;DHT22;3875;46.562;4.898;2023-03-26T03:31:14;10.80;89.00
7666;DHT22;3875;46.562;4.898;2023-03-26T03:33:40;10.80;89.00
7666;DHT22;3875;46.562;4.898;2023-03-26T03:36:09;10.80;89.00
7666;DHT22;3875;46.562;4.898;2023-03-26T03:38:39;10.80;89.00
7666;DHT22;3875;46.562;4.898;2023-03-26T03:41:06;10.90;89.00
7666;DHT22;3875;46.562;4.898;2023-03-26T03:43:32;10.90;89.10
7666;DHT22;3875;46.562;4.898;2023-03-26T03:45:58;10.90;89.10
7666;DHT22;3875;46.562;4.898;2023-03-26T03:48:24;10.80;89.30
7666;DHT22;3875;46.562;4.898;2023-03-26T03:50:50;10.80;89.30
7666;DHT22;3875;46.562;4.898;2023-03-26T03:53:16;10.80;89.20
7666;DHT22;3875;46.562;4.898;2023-03-26T03:55:43;10.90;89.30
7666;DHT22;3875;46.562;4.898;2023-03-26T03:58:24;10.90;89.30
7666;DHT22;3875;46.562;4.898;2023-03-26T04:00:53;10.90;89.40
7666;DHT22;3875;46.562;4.898;2023-03-26T04:03:25;10.80;89.70
7666;DHT22;3875;46.562;4.898;2023-03-26T04:05:52;10.80;89.90
7666;DHT22;3875;46.562;4.898;2023-03-26T04:08:22;10.80;90.30
7666;DHT22;3875;46.562;4.898;2023-03-26T04:10:49;10.80;90.10
7666;DHT22;3875;46.562;4.898;2023-03-26T04:13:16;10.80;90.30
7666;DHT22;3875;46.562;4.898;2023-03-26T04:15:42;10.80;90.30
7666;DHT22;3875;46.562;4.898;2023-03-26T04:18:08;10.80;90.60
7666;DHT22;3875;46.562;4.898;2023-03-26T04:20:40;10.80;90.70
7666;DHT22;3875;46.562;4.898;2023-03-26T04:23:11;10.80;90.60
7666;DHT22;3875;46.562;4.898;2023-03-26T04:25:49;10.80;90.60
7666;DHT22;3875;46.562;4.898;2023-03-26T04:28:39;10.80;90.70
7666;DHT22;3875;46.562;4.898;2023-03-26T04:31:09;10.80;90.60
7666;DHT22;3875;46.562;4.898;2023-03-26T04:33:38;10.80;91.00
7666;DHT22;3875;46.562;4.898;2023-03-26T04:36:04;10.70;91.30
7666;DHT22;3875;46.562;4.898;2023-03-26T04:38:46;10.70;92.00
7666;DHT22;3875;46.562;4.898;2023-03-26T04:41:14;10.60;92.10
7666;DHT22;3875;46.562;4.898;2023-03-26T04:43:40;10.60;92.50
7666;DHT22;3875;46.562;4.898;2023-03-26T04:46:15;10.50;92.90
7666;DHT22;3875;46.562;4.898;2023-03-26T04:48:43;10.50;92.90
7666;DHT22;3875;46.562;4.898;2023-03-26T04:51:11;10.50;93.20
7666;DHT22;3875;46.562;4.898;2023-03-26T04:53:54;10.60;93.10
7666;DHT22;3875;46.562;4.898;2023-03-26T04:56:37;10.60;93.10
7666;DHT22;3875;46.562;4.898;2023-03-26T04:59:04;10.60;93.20
7666;DHT22;3875;46.562;4.898;2023-03-26T05:01:30;10.60;93.10
7666;DHT22;3875;46.562;4.898;2023-03-26T05:03:57;10.60;93.30
7666;DHT22;3875;46.562;4.898;2023-03-26T05:06:24;10.60;93.40
7666;DHT22;3875;46.562;4.898;2023-03-26T05:08:52;10.60;93.50
7666;DHT22;3875;46.562;4.898;2023-03-26T05:11:18;10.60;93.30
7666;DHT22;3875;46.562;4.898;2023-03-26T05:13:43;10.60;93.40
7666;DHT22;3875;46.562;4.898;2023-03-26T05:16:09;10.60;93.50
7666;DHT22;3875;46.562;4.898;2023-03-26T05:18:35;10.60;93.30
7666;DHT22;3875;46.562;4.898;2023-03-26T05:21:01;10.60;93.40
7666;DHT22;3875;46.562;4.898;2023-03-26T05:23:27;10.50;93.40
7666;DHT22;3875;46.562;4.898;2023-03-26T05:25:53;10.50;93.40
7666;DHT22;3875;46.562;4.898;2023-03-26T05:28:18;10.50;93.40
7666;DHT22;3875;46.562;4.898;2023-03-26T05:30:45;10.50;93.40
7666;DHT22;3875;46.562;4.898;2023-03-26T05:33:11;10.50;93.40
7666;DHT22;3875;46.562;4.898;2023-03-26T05:35:37;10.50;93.40
7666;DHT22;3875;46.562;4.898;2023-03-26T05:38:02;10.50;93.30
7666;DHT22;3875;46.562;4.898;2023-03-26T05:40:28;10.50;93.30
7666;DHT22;3875;46.562;4.898;2023-03-26T05:42:54;10.50;93.20
7666;DHT22;3875;46.562;4.898;2023-03-26T05:45:19;10.50;93.10
7666;DHT22;3875;46.562;4.898;2023-03-26T05:47:47;10.50;93.20
7666;DHT22;3875;46.562;4.898;2023-03-26T05:50:14;10.50;93.30
7666;DHT22;3875;46.562;4.898;2023-03-26T05:52:40;10.50;93.10
7666;DHT22;3875;46.562;4.898;2023-03-26T05:55:06;10.50;92.90
7666;DHT22;3875;46.562;4.898;2023-03-26T05:57:33;10.60;92.70
7666;DHT22;3875;46.562;4.898;2023-03-26T06:00:00;10.60;92.60
7666;DHT22;3875;46.562;4.898;2023-03-26T06:02:26;10.60;92.60
7666;DHT22;3875;46.562;4.898;2023-03-26T06:04:53;10.60;92.60
7666;DHT22;3875;46.562;4.898;2023-03-26T06:07:21;10.70;92.40
7666;DHT22;3875;46.562;4.898;2023-03-26T06:09:47;10.70;92.40
7666;DHT22;3875;46.562;4.898;2023-03-26T06:12:13;10.70;92.30
7666;DHT22;3875;46.562;4.898;2023-03-26T06:14:39;10.80;92.10
7666;DHT22;3875;46.562;4.898;2023-03-26T06:17:08;10.80;92.10
7666;DHT22;3875;46.562;4.898;2023-03-26T06:19:34;10.80;91.80
7666;DHT22;3875;46.562;4.898;2023-03-26T06:22:00;10.90;91.70
7666;DHT22;3875;46.562;4.898;2023-03-26T06:24:26;10.90;91.50
7666;DHT22;3875;46.562;4.898;2023-03-26T06:26:52;11.00;91.30
7666;DHT22;3875;46.562;4.898;2023-03-26T06:29:18;11.10;91.00
7666;DHT22;3875;46.562;4.898;2023-03-26T06:31:44;11.20;90.60
7666;DHT22;3875;46.562;4.898;2023-03-26T06:34:09;11.30;90.10
7666;DHT22;3875;46.562;4.898;2023-03-26T06:36:35;11.40;89.30
7666;DHT22;3875;46.562;4.898;2023-03-26T06:39:01;11.50;88.90
7666;DHT22;3875;46.562;4.898;2023-03-26T06:41:27;11.60;87.90
7666;DHT22;3875;46.562;4.898;2023-03-26T06:43:52;11.70;86.80
7666;DHT22;3875;46.562;4.898;2023-03-26T06:46:18;11.80;86.60
7666;DHT22;3875;46.562;4.898;2023-03-26T06:48:45;11.80;85.60
7666;DHT22;3875;46.562;4.898;2023-03-26T06:51:11;11.90;85.50
7666;DHT22;3875;46.562;4.898;2023-03-26T06:53:37;11.90;84.90
7666;DHT22;3875;46.562;4.898;2023-03-26T06:56:02;12.00;82.50
7666;DHT22;3875;46.562;4.898;2023-03-26T06:58:28;12.00;83.70
7666;DHT22;3875;46.562;4.898;2023-03-26T07:00:55;12.00;82.90
7666;DHT22;3875;46.562;4.898;2023-03-26T07:03:21;12.00;82.60
7666;DHT22;3875;46.562;4.898;2023-03-26T07:05:47;11.90;82.20
7666;DHT22;3875;46.562;4.898;2023-03-26T07:08:14;12.00;83.00
7666;DHT22;3875;46.562;4.898;2023-03-26T07:10:39;12.00;83.10
7666;DHT22;3875;46.562;4.898;2023-03-26T07:13:06;11.90;82.20
7666;DHT22;3875;46.562;4.898;2023-03-26T07:15:32;11.90;81.40
7666;DHT22;3875;46.562;4.898;2023-03-26T07:17:57;11.90;82.40
7666;DHT22;3875;46.562;4.898;2023-03-26T07:20:23;11.80;82.00
7666;DHT22;3875;46.562;4.898;2023-03-26T07:22:50;11.70;81.40
7666;DHT22;3875;46.562;4.898;2023-03-26T07:25:17;11.70;82.20
7666;DHT22;3875;46.562;4.898;2023-03-26T07:28:06;11.60;82.10
7666;DHT22;3875;46.562;4.898;2023-03-26T07:30:55;11.60;82.10
7666;DHT22;3875;46.562;4.898;2023-03-26T07:36:33;11.60;81.70
7666;DHT22;3875;46.562;4.898;2023-03-26T07:42:22;11.60;82.20
7666;DHT22;3875;46.562;4.898;2023-03-26T07:45:18;11.60;82.00
7666;DHT22;3875;46.562;4.898;2023-03-26T07:47:46;11.80;82.20
7666;DHT22;3875;46.562;4.898;2023-03-26T07:50:15;12.20;81.60
7666;DHT22;3875;46.562;4.898;2023-03-26T07:52:41;12.50;80.00
7666;DHT22;3875;46.562;4.898;2023-03-26T07:55:12;12.80;79.20
7666;DHT22;3875;46.562;4.898;2023-03-26T07:57:57;13.10;78.10
7666;DHT22;3875;46.562;4.898;2023-03-26T08:00:40;13.20;77.10
7666;DHT22;3875;46.562;4.898;2023-03-26T08:05:46;13.20;75.10
7666;DHT22;3875;46.562;4.898;2023-03-26T08:08:32;13.40;75.60
7666;DHT22;3875;46.562;4.898;2023-03-26T08:14:20;13.80;73.80
7666;DHT22;3875;46.562;4.898;2023-03-26T08:17:12;13.80;73.90
7666;DHT22;3875;46.562;4.898;2023-03-26T08:22:39;13.50;74.30
7666;DHT22;3875;46.562;4.898;2023-03-26T08:30:23;13.20;74.90
7666;DHT22;3875;46.562;4.898;2023-03-26T08:33:09;13.20;75.30
7666;DHT22;3875;46.562;4.898;2023-03-26T08:35:36;13.30;75.20
7666;DHT22;3875;46.562;4.898;2023-03-26T08:38:10;13.20;75.30
7666;DHT22;3875;46.562;4.898;2023-03-26T08:51:56;13.00;75.70
7666;DHT22;3875;46.562;4.898;2023-03-26T09:02:58;14.60;72.60
7666;DHT22;3875;46.562;4.898;2023-03-26T09:05:43;15.10;71.80
7666;DHT22;3875;46.562;4.898;2023-03-26T09:08:50;15.50;68.90
7666;DHT22;3875;46.562;4.898;2023-03-26T09:28:52;15.60;66.80
7666;DHT22;3875;46.562;4.898;2023-03-26T09:42:39;15.50;68.20
7666;DHT22;3875;46.562;4.898;2023-03-26T09:48:23;16.40;67.40
7666;DHT22;3875;46.562;4.898;2023-03-26T09:53:50;17.20;64.50
7666;DHT22;3875;46.562;4.898;2023-03-26T10:10:58;16.90;63.20
7666;DHT22;3875;46.562;4.898;2023-03-26T10:24:32;16.00;65.20
7666;DHT22;3875;46.562;4.898;2023-03-26T10:40:50;17.20;61.60
7666;DHT22;3875;46.562;4.898;2023-03-26T10:43:47;17.10;62.90
7666;DHT22;3875;46.562;4.898;2023-03-26T10:49:44;16.00;63.20
7666;DHT22;3875;46.562;4.898;2023-03-26T10:52:18;15.50;63.20
7666;DHT22;3875;46.562;4.898;2023-03-26T10:54:55;15.20;64.10
7666;DHT22;3875;46.562;4.898;2023-03-26T10:57:54;14.90;64.60
7666;DHT22;3875;46.562;4.898;2023-03-26T11:00:23;14.70;65.10
7666;DHT22;3875;46.562;4.898;2023-03-26T11:06:12;13.80;67.70
7666;DHT22;3875;46.562;4.898;2023-03-26T11:08:48;12.90;72.70
7666;DHT22;3875;46.562;4.898;2023-03-26T11:14:10;11.30;81.60
7666;DHT22;3875;46.562;4.898;2023-03-26T11:19:26;12.00;81.80
7666;DHT22;3875;46.562;4.898;2023-03-26T11:28:02;12.10;78.90
7666;DHT22;3875;46.562;4.898;2023-03-26T11:33:21;13.90;75.80
7666;DHT22;3875;46.562;4.898;2023-03-26T11:35:50;14.90;76.60
7666;DHT22;3875;46.562;4.898;2023-03-26T11:38:36;15.00;71.70
7666;DHT22;3875;46.562;4.898;2023-03-26T11:41:06;15.10;73.10
7666;DHT22;3875;46.562;4.898;2023-03-26T11:43:35;15.50;73.10
7666;DHT22;3875;46.562;4.898;2023-03-26T11:46:05;15.80;71.70
7666;DHT22;3875;46.562;4.898;2023-03-26T11:48:47;16.20;70.70
7666;DHT22;3875;46.562;4.898;2023-03-26T11:51:37;16.40;69.70
7666;DHT22;3875;46.562;4.898;2023-03-26T11:54:05;16.60;68.50
7666;DHT22;3875;46.562;4.898;2023-03-26T11:56:47;16.70;67.30
7666;DHT22;3875;46.562;4.898;2023-03-26T11:59:17;16.20;66.80
7666;DHT22;3875;46.562;4.898;2023-03-26T12:07:30;15.90;68.00
7666;DHT22;3875;46.562;4.898;2023-03-26T12:12:30;15.80;67.10
7666;DHT22;3875;46.562;4.898;2023-03-26T12:14:57;15.60;67.50
7666;DHT22;3875;46.562;4.898;2023-03-26T12:17:30;15.50;68.10
7666;DHT22;3875;46.562;4.898;2023-03-26T12:19:57;15.20;68.90
7666;DHT22;3875;46.562;4.898;2023-03-26T12:22:32;15.50;67.80
7666;DHT22;3875;46.562;4.898;2023-03-26T12:25:21;15.60;67.20
7666;DHT22;3875;46.562;4.898;2023-03-26T12:27:48;15.90;67.00
7666;DHT22;3875;46.562;4.898;2023-03-26T12:30:25;16.40;67.30
7666;DHT22;3875;46.562;4.898;2023-03-26T12:32:55;16.50;65.00
7666;DHT22;3875;46.562;4.898;2023-03-26T12:35:26;16.20;66.20
7666;DHT22;3875;46.562;4.898;2023-03-26T12:37:55;16.20;65.70
7666;DHT22;3875;46.562;4.898;2023-03-26T12:40:37;16.10;63.40
7666;DHT22;3875;46.562;4.898;2023-03-26T12:45:49;16.10;61.30
7666;DHT22;3875;46.562;4.898;2023-03-26T12:48:18;15.90;62.20
7666;DHT22;3875;46.562;4.898;2023-03-26T12:56:46;16.50;61.80
7666;DHT22;3875;46.562;4.898;2023-03-26T13:05:21;16.20;62.80
7666;DHT22;3875;46.562;4.898;2023-03-26T13:16:32;16.00;61.30
7666;DHT22;3875;46.562;4.898;2023-03-26T13:24:39;16.60;62.00
7666;DHT22;3875;46.562;4.898;2023-03-26T13:27:27;16.60;60.60
7666;DHT22;3875;46.562;4.898;2023-03-26T13:30:02;16.40;61.90
7666;DHT22;3875;46.562;4.898;2023-03-26T13:38:12;16.40;60.20
7666;DHT22;3875;46.562;4.898;2023-03-26T13:46:13;16.60;61.10
7666;DHT22;3875;46.562;4.898;2023-03-26T13:48:52;16.50;60.70
7666;DHT22;3875;46.562;4.898;2023-03-26T13:51:24;16.40;60.70
7666;DHT22;3875;46.562;4.898;2023-03-26T13:54:03;16.40;60.30
7666;DHT22;3875;46.562;4.898;2023-03-26T13:56:38;16.10;60.60
7666;DHT22;3875;46.562;4.898;2023-03-26T13:59:29;16.00;60.10
7666;DHT22;3875;46.562;4.898;2023-03-26T14:02:13;16.10;61.10
7666;DHT22;3875;46.562;4.898;2023-03-26T14:04:46;16.00;60.80
7666;DHT22;3875;46.562;4.898;2023-03-26T14:07:23;16.20;61.80
7666;DHT22;3875;46.562;4.898;2023-03-26T14:10:03;16.50;60.20
7666;DHT22;3875;46.562;4.898;2023-03-26T14:18:23;16.50;57.70
7666;DHT22;3875;46.562;4.898;2023-03-26T14:20:59;16.10;58.60
7666;DHT22;3875;46.562;4.898;2023-03-26T14:29:30;15.70;59.40
7666;DHT22;3875;46.562;4.898;2023-03-26T14:32:15;15.90;60.00
7666;DHT22;3875;46.562;4.898;2023-03-26T14:40:55;16.00;57.90
7666;DHT22;3875;46.562;4.898;2023-03-26T14:52:04;16.10;57.40
7666;DHT22;3875;46.562;4.898;2023-03-26T14:54:36;16.40;58.50
7666;DHT22;3875;46.562;4.898;2023-03-26T14:57:07;16.30;57.60
7666;DHT22;3875;46.562;4.898;2023-03-26T15:19:50;16.50;58.70
7666;DHT22;3875;46.562;4.898;2023-03-26T15:23:21;16.70;58.30
7666;DHT22;3875;46.562;4.898;2023-03-26T15:40:13;16.10;57.70
7666;DHT22;3875;46.562;4.898;2023-03-26T15:45:29;15.90;58.90
7666;DHT22;3875;46.562;4.898;2023-03-26T15:48:06;15.60;59.50
7666;DHT22;3875;46.562;4.898;2023-03-26T15:56:18;15.60;61.30
7666;DHT22;3875;46.562;4.898;2023-03-26T15:59:11;15.50;61.30
7666;DHT22;3875;46.562;4.898;2023-03-26T16:01:53;15.70;61.80
7666;DHT22;3875;46.562;4.898;2023-03-26T16:04:50;15.70;61.40
7666;DHT22;3875;46.562;4.898;2023-03-26T16:15:38;16.00;62.10
7666;DHT22;3875;46.562;4.898;2023-03-26T16:26:25;15.70;62.20
7666;DHT22;3875;46.562;4.898;2023-03-26T16:29:05;15.70;62.60
7666;DHT22;3875;46.562;4.898;2023-03-26T16:35:02;15.40;63.30
7666;DHT22;3875;46.562;4.898;2023-03-26T16:37:37;15.30;63.90
7666;DHT22;3875;46.562;4.898;2023-03-26T16:48:24;14.80;64.10
7666;DHT22;3875;46.562;4.898;2023-03-26T16:56:22;14.50;64.70
7666;DHT22;3875;46.562;4.898;2023-03-26T17:04:49;14.30;65.20
7666;DHT22;3875;46.562;4.898;2023-03-26T17:07:31;14.30;65.00
7666;DHT22;3875;46.562;4.898;2023-03-26T17:10:06;14.20;64.70
7666;DHT22;3875;46.562;4.898;2023-03-26T17:12:54;14.20;65.30
7666;DHT22;3875;46.562;4.898;2023-03-26T17:21:19;14.20;65.60
7666;DHT22;3875;46.562;4.898;2023-03-26T17:26:48;14.00;65.40
7666;DHT22;3875;46.562;4.898;2023-03-26T17:32:08;14.00;65.90
7666;DHT22;3875;46.562;4.898;2023-03-26T17:34:41;13.90;66.00
7666;DHT22;3875;46.562;4.898;2023-03-26T17:42:24;13.90;66.60
7666;DHT22;3875;46.562;4.898;2023-03-26T17:44:53;13.90;66.90
7666;DHT22;3875;46.562;4.898;2023-03-26T17:53:00;13.80;67.10
7666;DHT22;3875;46.562;4.898;2023-03-26T17:55:29;13.80;67.40
7666;DHT22;3875;46.562;4.898;2023-03-26T17:57:57;13.70;67.60
7666;DHT22;3875;46.562;4.898;2023-03-26T18:00:30;13.70;67.70
7666;DHT22;3875;46.562;4.898;2023-03-26T18:03:13;13.70;67.70
7666;DHT22;3875;46.562;4.898;2023-03-26T18:05:42;13.70;67.60
7666;DHT22;3875;46.562;4.898;2023-03-26T18:16:55;13.70;68.30
7666;DHT22;3875;46.562;4.898;2023-03-26T18:19:21;13.70;68.00
7666;DHT22;3875;46.562;4.898;2023-03-26T18:21:52;13.50;68.60
7666;DHT22;3875;46.562;4.898;2023-03-26T18:24:36;13.30;69.10
7666;DHT22;3875;46.562;4.898;2023-03-26T18:29:32;13.20;69.60
7666;DHT22;3875;46.562;4.898;2023-03-26T18:34:37;13.00;70.00
7666;DHT22;3875;46.562;4.898;2023-03-26T18:40:08;13.00;70.40
7666;DHT22;3875;46.562;4.898;2023-03-26T18:42:36;13.00;70.50
7666;DHT22;3875;46.562;4.898;2023-03-26T18:45:07;13.00;70.40
7666;DHT22;3875;46.562;4.898;2023-03-26T18:47:33;13.10;70.10
7666;DHT22;3875;46.562;4.898;2023-03-26T18:50:01;13.00;70.00
7666;DHT22;3875;46.562;4.898;2023-03-26T18:52:28;13.00;70.50
7666;DHT22;3875;46.562;4.898;2023-03-26T18:54:56;12.90;70.30
7666;DHT22;3875;46.562;4.898;2023-03-26T18:57:26;12.90;70.70
7666;DHT22;3875;46.562;4.898;2023-03-26T18:59:54;12.90;70.70
7666;DHT22;3875;46.562;4.898;2023-03-26T19:02:23;12.90;70.90
7666;DHT22;3875;46.562;4.898;2023-03-26T19:04:50;12.70;71.50
7666;DHT22;3875;46.562;4.898;2023-03-26T19:07:24;12.60;71.90
7666;DHT22;3875;46.562;4.898;2023-03-26T19:09:52;12.60;72.10
7666;DHT22;3875;46.562;4.898;2023-03-26T19:12:31;12.60;72.20
7666;DHT22;3875;46.562;4.898;2023-03-26T19:15:13;12.60;72.40
7666;DHT22;3875;46.562;4.898;2023-03-26T19:17:52;12.60;72.40
7666;DHT22;3875;46.562;4.898;2023-03-26T19:20:26;12.60;72.30
7666;DHT22;3875;46.562;4.898;2023-03-26T19:22:53;12.40;72.70
7666;DHT22;3875;46.562;4.898;2023-03-26T19:25:27;12.20;73.20
7666;DHT22;3875;46.562;4.898;2023-03-26T19:27:53;12.20;73.40
7666;DHT22;3875;46.562;4.898;2023-03-26T19:30:33;12.20;73.50
7666;DHT22;3875;46.562;4.898;2023-03-26T19:33:10;12.20;73.50
7666;DHT22;3875;46.562;4.898;2023-03-26T19:35:38;12.00;73.90
7666;DHT22;3875;46.562;4.898;2023-03-26T19:38:24;11.90;74.10
7666;DHT22;3875;46.562;4.898;2023-03-26T19:40:53;11.90;73.90
7666;DHT22;3875;46.562;4.898;2023-03-26T19:43:20;11.90;73.80
7666;DHT22;3875;46.562;4.898;2023-03-26T19:45:47;11.80;73.60
7666;DHT22;3875;46.562;4.898;2023-03-26T19:48:17;11.60;74.80
7666;DHT22;3875;46.562;4.898;2023-03-26T19:50:53;11.40;76.40
7666;DHT22;3875;46.562;4.898;2023-03-26T19:53:22;11.20;77.60
7666;DHT22;3875;46.562;4.898;2023-03-26T19:55:55;10.90;79.30
7666;DHT22;3875;46.562;4.898;2023-03-26T19:58:22;10.80;80.20
7666;DHT22;3875;46.562;4.898;2023-03-26T20:00:47;10.60;81.10
7666;DHT22;3875;46.562;4.898;2023-03-26T20:03:13;10.40;81.60
7666;DHT22;3875;46.562;4.898;2023-03-26T20:05:41;10.30;82.10
7666;DHT22;3875;46.562;4.898;2023-03-26T20:08:15;10.10;82.70
7666;DHT22;3875;46.562;4.898;2023-03-26T20:10:41;10.00;82.40
7666;DHT22;3875;46.562;4.898;2023-03-26T20:13:14;9.80;82.10
7666;DHT22;3875;46.562;4.898;2023-03-26T20:15:42;9.70;82.50
7666;DHT22;3875;46.562;4.898;2023-03-26T20:18:09;9.70;83.30
7666;DHT22;3875;46.562;4.898;2023-03-26T20:20:36;9.60;84.50
7666;DHT22;3875;46.562;4.898;2023-03-26T20:23:09;9.30;85.90
7666;DHT22;3875;46.562;4.898;2023-03-26T20:25:48;9.10;87.30
7666;DHT22;3875;46.562;4.898;2023-03-26T20:28:17;8.90;88.10
7666;DHT22;3875;46.562;4.898;2023-03-26T20:30:47;8.80;88.60
7666;DHT22;3875;46.562;4.898;2023-03-26T20:33:20;8.70;89.10
7666;DHT22;3875;46.562;4.898;2023-03-26T20:35:47;8.60;89.40
7666;DHT22;3875;46.562;4.898;2023-03-26T20:38:12;8.40;89.80
7666;DHT22;3875;46.562;4.898;2023-03-26T20:40:39;8.30;90.20
7666;DHT22;3875;46.562;4.898;2023-03-26T20:43:10;8.20;90.60
7666;DHT22;3875;46.562;4.898;2023-03-26T20:45:36;8.10;90.90
7666;DHT22;3875;46.562;4.898;2023-03-26T20:48:02;8.00;90.90
7666;DHT22;3875;46.562;4.898;2023-03-26T20:50:27;8.00;91.00
7666;DHT22;3875;46.562;4.898;2023-03-26T20:52:53;8.00;90.90
7666;DHT22;3875;46.562;4.898;2023-03-26T20:55:19;7.90;91.20
7666;DHT22;3875;46.562;4.898;2023-03-26T20:57:46;7.90;91.70
7666;DHT22;3875;46.562;4.898;2023-03-26T21:00:13;7.80;91.90
7666;DHT22;3875;46.562;4.898;2023-03-26T21:02:42;7.80;92.10
7666;DHT22;3875;46.562;4.898;2023-03-26T21:05:09;7.80;92.00
7666;DHT22;3875;46.562;4.898;2023-03-26T21:07:41;7.70;92.30
7666;DHT22;3875;46.562;4.898;2023-03-26T21:10:10;7.70;92.70
7666;DHT22;3875;46.562;4.898;2023-03-26T21:12:42;7.60;92.90
7666;DHT22;3875;46.562;4.898;2023-03-26T21:15:10;7.60;93.20
7666;DHT22;3875;46.562;4.898;2023-03-26T21:17:37;7.60;93.30
7666;DHT22;3875;46.562;4.898;2023-03-26T21:20:03;7.60;93.50
7666;DHT22;3875;46.562;4.898;2023-03-26T21:25:52;7.60;93.60
7666;DHT22;3875;46.562;4.898;2023-03-26T21:28:37;7.50;93.90
7666;DHT22;3875;46.562;4.898;2023-03-26T21:31:18;7.50;94.10
7666;DHT22;3875;46.562;4.898;2023-03-26T21:33:46;7.50;94.20
7666;DHT22;3875;46.562;4.898;2023-03-26T21:36:12;7.50;94.30
7666;DHT22;3875;46.562;4.898;2023-03-26T21:38:39;7.50;94.60
7666;DHT22;3875;46.562;4.898;2023-03-26T21:44:01;7.40;94.80
7666;DHT22;3875;46.562;4.898;2023-03-26T21:46:28;7.40;95.00
7666;DHT22;3875;46.562;4.898;2023-03-26T21:48:54;7.40;95.00
7666;DHT22;3875;46.562;4.898;2023-03-26T21:51:20;7.40;95.30
7666;DHT22;3875;46.562;4.898;2023-03-26T21:53:46;7.40;95.40
7666;DHT22;3875;46.562;4.898;2023-03-26T21:59:38;7.40;95.30
7666;DHT22;3875;46.562;4.898;2023-03-26T22:02:08;7.40;95.40
7666;DHT22;3875;46.562;4.898;2023-03-26T22:04:50;7.40;95.50
7666;DHT22;3875;46.562;4.898;2023-03-26T22:08:09;7.40;95.50
7666;DHT22;3875;46.562;4.898;2023-03-26T22:10:08;7.50;95.20
7666;DHT22;3875;46.562;4.898;2023-03-26T22:12:33;7.40;95.50
7666;DHT22;3875;46.562;4.898;2023-03-26T22:14:59;7.40;95.50
7666;DHT22;3875;46.562;4.898;2023-03-26T22:17:26;7.40;95.40
7666;DHT22;3875;46.562;4.898;2023-03-26T22:19:52;7.40;95.50
7666;DHT22;3875;46.562;4.898;2023-03-26T22:22:17;7.40;95.40
7666;DHT22;3875;46.562;4.898;2023-03-26T22:24:43;7.50;95.30